»·PEaware :: UPS224 KBOI-KSEA

UPS224 :: KBOI-KSEA

FLIGHT INFORMATION

Flight Status: Arrived
Operator:
United Parcel Service
More flights by this operator :: More flights under this callsign
Pilot: Matteo S. (9898)
Aircraft: BOEING 757-200
(B752)
More flights by this aircraft type
Origin: KBOI Boise Air Terminal/Gowen
United States
Destination: KSEA Seattle-Tacoma Intl
United States
More flights between these airports :: More routes between these airports
Route: +BOI3 LICKS PREIS PDT CHINS3
File this flight plan on PilotEdge
Remarks:
Altitude:
(Current/Filed)
34,000ft
Speed:
(Current/Filed)
460kts
Departed: 11-Sep-18 08:38 AM
Arrived: 11-Sep-18 09:42 AM
Distance/Time
Traveled:
346nm/1:03
Distance/Time
To Go:
Arrived

Flight Plot

Page will automatically refresh every two minutes.

Flight plan parsing failed; only flown route is shown


Map Options




Map Legend


Flown Route
Filed Route
Departure Airport
Arrival Airport
Navaid (VOR, NDB)
Fix

Horizontal Profiles

Position Reports

Time Latitude Longitude Heading Altitude Ground
Speed
11-Sep-18 08:17 43.566706 -116.243858 270 2819ft 0kts
11-Sep-18 08:18 43.566706 -116.243858 270 2819ft 0kts
11-Sep-18 08:19 43.566706 -116.243858 270 2819ft 0kts
11-Sep-18 08:20 43.566706 -116.243858 270 2819ft 0kts
11-Sep-18 08:21 43.566706 -116.243858 270 2819ft 0kts
11-Sep-18 08:22 43.566706 -116.243858 270 2819ft 0kts
11-Sep-18 08:23 43.566706 -116.243858 270 2819ft 0kts
11-Sep-18 08:24 43.566706 -116.243858 270 2819ft 0kts
11-Sep-18 08:25 43.566706 -116.243858 270 2819ft 0kts
11-Sep-18 08:26 43.566704 -116.243665 271 2819ft 0kts
11-Sep-18 08:27 43.567075 -116.242718 178 2821ft 1kts
11-Sep-18 08:28 43.567638 -116.242557 190 2821ft 1kts
11-Sep-18 08:29 43.567731 -116.242535 189 2821ft 0kts
11-Sep-18 08:30 43.567731 -116.242535 189 2821ft 0kts
11-Sep-18 08:31 43.567715 -116.242539 189 2821ft 1kts
11-Sep-18 08:32 43.566251 -116.242645 173 2821ft 6kts
11-Sep-18 08:33 43.565867 -116.240617 85 2825ft 9kts
11-Sep-18 08:34 43.566154 -116.236131 85 2834ft 13kts
11-Sep-18 08:35 43.564630 -116.230654 117 2844ft 18kts
11-Sep-18 08:36 43.562217 -116.223607 115 2853ft 19kts
11-Sep-18 08:37 43.560281 -116.217959 114 2856ft 15kts
11-Sep-18 08:38 43.558918 -116.213975 115 2859ft 7kts
11-Sep-18 08:39 43.558064 -116.211468 115 2862ft 7kts
11-Sep-18 08:40 43.560224 -116.213907 295 2861ft 75kts
11-Sep-18 08:41 43.577901 -116.266796 290 5036ft 165kts
11-Sep-18 08:42 43.598793 -116.340933 289 6841ft 228kts
11-Sep-18 08:43 43.657428 -116.385895 335 9411ft 273kts
11-Sep-18 08:44 43.729534 -116.431616 329 11704ft 315kts
11-Sep-18 08:45 43.814043 -116.492250 328 13844ft 361kts
11-Sep-18 08:46 43.903670 -116.557472 327 16558ft 374kts
11-Sep-18 08:47 43.997266 -116.625910 327 19001ft 388kts
11-Sep-18 08:48 44.092693 -116.695943 326 21128ft 402kts
11-Sep-18 08:49 44.183388 -116.783308 309 23113ft 403kts
11-Sep-18 08:50 44.264348 -116.893950 309 25008ft 415kts
11-Sep-18 08:51 44.347373 -117.008153 309 26747ft 425kts
11-Sep-18 08:52 44.432212 -117.125410 309 28257ft 435kts
11-Sep-18 08:53 44.518637 -117.245399 308 29593ft 444kts
11-Sep-18 08:54 44.606807 -117.368354 308 30790ft 452kts
11-Sep-18 08:55 44.695365 -117.492364 308 32364ft 448kts
11-Sep-18 08:56 44.782933 -117.615598 307 33783ft 445kts
11-Sep-18 08:57 44.869109 -117.737433 307 34079ft 442kts
11-Sep-18 08:58 44.956250 -117.861202 307 34078ft 448kts
11-Sep-18 08:59 45.043489 -117.985604 306 34078ft 448kts
11-Sep-18 09:00 45.129886 -118.109409 304 34067ft 448kts
11-Sep-18 09:01 45.216702 -118.234460 304 34065ft 448kts
11-Sep-18 09:02 45.303736 -118.360348 304 34065ft 448kts
11-Sep-18 09:03 45.390508 -118.486434 304 34064ft 448kts
11-Sep-18 09:04 45.477401 -118.613290 304 34056ft 447kts
11-Sep-18 09:05 45.561870 -118.737197 303 34044ft 447kts
11-Sep-18 09:06 45.647048 -118.862663 303 34021ft 437kts
11-Sep-18 09:07 45.728771 -118.989972 300 34021ft 432kts
11-Sep-18 09:08 45.806247 -119.120627 300 34022ft 432kts
11-Sep-18 09:09 45.883759 -119.252057 300 34019ft 431kts
11-Sep-18 09:10 45.960775 -119.383320 300 34015ft 431kts
11-Sep-18 09:11 46.037807 -119.515246 300 34001ft 432kts
11-Sep-18 09:12 46.101056 -119.624021 300 33991ft 432kts
11-Sep-18 09:13 46.187286 -119.773004 300 33991ft 430kts
11-Sep-18 09:14 46.263911 -119.906092 299 33991ft 433kts
11-Sep-18 09:15 46.327780 -120.017531 299 33991ft 435kts
11-Sep-18 09:16 46.404738 -120.152361 299 33990ft 434kts
11-Sep-18 09:17 46.494317 -120.310230 300 32404ft 439kts
11-Sep-18 09:18 46.559161 -120.425053 301 30547ft 442kts
11-Sep-18 09:19 46.629510 -120.566118 297 28799ft 422kts
11-Sep-18 09:20 46.678863 -120.671403 297 27357ft 410kts
11-Sep-18 09:21 46.723474 -120.765742 297 26094ft 404kts
11-Sep-18 09:22 46.786337 -120.898747 298 24365ft 394kts
11-Sep-18 09:23 46.847696 -121.029100 299 22979ft 384kts
11-Sep-18 09:24 46.907395 -121.156531 300 21577ft 374kts
11-Sep-18 09:25 46.965373 -121.280808 301 20171ft 370kts
11-Sep-18 09:26 47.022788 -121.404387 301 19034ft 352kts
11-Sep-18 09:27 47.077320 -121.522363 301 19045ft 351kts
11-Sep-18 09:28 47.129680 -121.636101 301 19043ft 351kts
11-Sep-18 09:29 47.183362 -121.753204 300 19041ft 351kts
11-Sep-18 09:30 47.237667 -121.872177 301 17626ft 350kts
11-Sep-18 09:31 47.291108 -121.989738 301 15629ft 343kts
11-Sep-18 09:32 47.343649 -122.105814 302 13627ft 338kts
11-Sep-18 09:33 47.422108 -122.169417 358 11667ft 342kts
11-Sep-18 09:34 47.515770 -122.171400 356 9683ft 336kts
11-Sep-18 09:35 47.598582 -122.176034 356 7598ft 285kts
11-Sep-18 09:36 47.678846 -122.181188 358 5408ft 290kts
11-Sep-18 09:37 47.727089 -122.245899 275 3982ft 239kts
11-Sep-18 09:38 47.695763 -122.312185 179 4004ft 228kts
11-Sep-18 09:39 47.633413 -122.309910 180 3760ft 219kts
11-Sep-18 09:40 47.577291 -122.310060 180 2696ft 188kts
11-Sep-18 09:41 47.530785 -122.310437 180 1779ft 148kts
11-Sep-18 09:42 47.493352 -122.310770 180 1046ft 127kts
11-Sep-18 09:43 47.458333 -122.311041 180 442ft 120kts
11-Sep-18 09:44 47.447233 -122.309898 151 438ft 14kts
11-Sep-18 09:45 47.447668 -122.306292 0 438ft 22kts
11-Sep-18 09:46 47.454491 -122.306246 0 438ft 24kts
11-Sep-18 09:47 47.460730 -122.306182 0 438ft 20kts
11-Sep-18 09:48 47.461379 -122.302730 177 438ft 6kts
11-Sep-18 09:49 47.460999 -122.302715 180 438ft 0kts

Navigation Log

Ident Type
Flight plan parsing failed, navigation log unavailable